sensor_id;sensor_type;location;lat;lon;timestamp;pressure;altitude;pressure_sealevel;temperature;humidity
75747;BME280;64363;52.198;21.020;2023-03-19T00:02:21;100569.94;;;6.61;53.32
75747;BME280;64363;52.198;21.020;2023-03-19T00:04:47;100580.56;;;6.57;52.98
75747;BME280;64363;52.198;21.020;2023-03-19T00:07:14;100575.28;;;6.54;53.48
75747;BME280;64363;52.198;21.020;2023-03-19T00:09:40;100574.44;;;6.52;53.45
75747;BME280;64363;52.198;21.020;2023-03-19T00:12:06;100569.16;;;6.51;53.02
75747;BME280;64363;52.198;21.020;2023-03-19T00:14:32;100570.13;;;6.44;53.01
75747;BME280;64363;52.198;21.020;2023-03-19T00:16:58;100568.34;;;6.46;53.47
75747;BME280;64363;52.198;21.020;2023-03-19T00:19:24;100565.72;;;6.44;53.38
75747;BME280;64363;52.198;21.020;2023-03-19T00:21:50;100565.66;;;6.47;53.35
75747;BME280;64363;52.198;21.020;2023-03-19T00:24:16;100563.06;;;6.43;53.72
75747;BME280;64363;52.198;21.020;2023-03-19T00:26:42;100553.28;;;6.49;53.71
75747;BME280;64363;52.198;21.020;2023-03-19T00:29:08;100556.88;;;6.45;54.68
75747;BME280;64363;52.198;21.020;2023-03-19T00:31:34;100547.31;;;6.34;53.73
75747;BME280;64363;52.198;21.020;2023-03-19T00:34:02;100555.25;;;6.32;53.79
75747;BME280;64363;52.198;21.020;2023-03-19T00:36:28;100557.03;;;6.32;54.21
75747;BME280;64363;52.198;21.020;2023-03-19T00:38:54;100558.84;;;6.27;54.79
75747;BME280;64363;52.198;21.020;2023-03-19T00:41:20;100560.69;;;6.20;54.37
75747;BME280;64363;52.198;21.020;2023-03-19T00:43:51;100561.56;;;6.19;54.28
75747;BME280;64363;52.198;21.020;2023-03-19T00:46:17;100553.59;;;6.22;53.90
75747;BME280;64363;52.198;21.020;2023-03-19T00:48:42;100559.88;;;6.14;54.69
75747;BME280;64363;52.198;21.020;2023-03-19T00:51:09;100551.06;;;6.10;55.21
75747;BME280;64363;52.198;21.020;2023-03-19T00:53:39;100545.78;;;6.11;55.03
75747;BME280;64363;52.198;21.020;2023-03-19T00:56:07;100551.16;;;6.05;55.74
75747;BME280;64363;52.198;21.020;2023-03-19T00:58:33;100554.69;;;6.04;55.24
75747;BME280;64363;52.198;21.020;2023-03-19T01:01:00;100549.44;;;6.01;55.14
75747;BME280;64363;52.198;21.020;2023-03-19T01:03:26;100551.28;;;5.92;55.69
75747;BME280;64363;52.198;21.020;2023-03-19T01:05:52;100553.97;;;5.89;55.04
75747;BME280;64363;52.198;21.020;2023-03-19T01:08:18;100557.47;;;5.91;55.65
75747;BME280;64363;52.198;21.020;2023-03-19T01:10:45;100556.56;;;5.93;55.64
75747;BME280;64363;52.198;21.020;2023-03-19T01:13:11;100550.38;;;5.94;55.94
75747;BME280;64363;52.198;21.020;2023-03-19T01:15:41;100553.97;;;5.89;55.26
75747;BME280;64363;52.198;21.020;2023-03-19T01:18:08;100550.44;;;5.85;55.66
75747;BME280;64363;52.198;21.020;2023-03-19T01:20:35;100555.72;;;5.85;55.74
75747;BME280;64363;52.198;21.020;2023-03-19T01:23:01;100555.75;;;5.84;55.04
75747;BME280;64363;52.198;21.020;2023-03-19T01:25:27;100561.09;;;5.78;56.55
75747;BME280;64363;52.198;21.020;2023-03-19T01:27:52;100559.38;;;5.71;56.92
75747;BME280;64363;52.198;21.020;2023-03-19T01:30:18;100559.38;;;5.74;55.88
75747;BME280;64363;52.198;21.020;2023-03-19T01:32:45;100566.44;;;5.72;56.31
75747;BME280;64363;52.198;21.020;2023-03-19T01:35:11;100566.41;;;5.75;56.27
75747;BME280;64363;52.198;21.020;2023-03-19T01:37:36;100564.66;;;5.74;56.37
75747;BME280;64363;52.198;21.020;2023-03-19T01:40:03;100570.81;;;5.77;56.34
75747;BME280;64363;52.198;21.020;2023-03-19T01:42:31;100569.84;;;5.83;55.96
75747;BME280;64363;52.198;21.020;2023-03-19T01:44:57;100568.97;;;5.82;55.84
75747;BME280;64363;52.198;21.020;2023-03-19T01:47:33;100569.84;;;5.83;55.99
75747;BME280;64363;52.198;21.020;2023-03-19T01:50:00;100572.53;;;5.78;55.29
75747;BME280;64363;52.198;21.020;2023-03-19T01:52:31;100559.38;;;5.74;56.31
75747;BME280;64363;52.198;21.020;2023-03-19T01:55:00;100564.63;;;5.75;55.93
75747;BME280;64363;52.198;21.020;2023-03-19T01:57:28;100563.75;;;5.78;56.44
75747;BME280;64363;52.198;21.020;2023-03-19T01:59:56;100566.31;;;5.84;56.24
75747;BME280;64363;52.198;21.020;2023-03-19T02:02:27;100564.56;;;5.83;56.86
75747;BME280;64363;52.198;21.020;2023-03-19T02:05:10;100561.09;;;5.78;57.01
75747;BME280;64363;52.198;21.020;2023-03-19T02:07:37;100557.56;;;5.76;56.74
75747;BME280;64363;52.198;21.020;2023-03-19T02:10:10;100552.28;;;5.74;56.26
75747;BME280;64363;52.198;21.020;2023-03-19T02:12:36;100554.09;;;5.74;56.16
75747;BME280;64363;52.198;21.020;2023-03-19T02:15:03;100566.41;;;5.75;56.52
75747;BME280;64363;52.198;21.020;2023-03-19T02:17:29;100558.47;;;5.76;56.07
75747;BME280;64363;52.198;21.020;2023-03-19T02:20:08;100559.34;;;5.77;56.08
75747;BME280;64363;52.198;21.020;2023-03-19T02:28:10;100547.88;;;5.75;56.62
75747;BME280;64363;52.198;21.020;2023-03-19T02:30:37;100547.88;;;5.75;56.85
75747;BME280;64363;52.198;21.020;2023-03-19T02:33:03;100547.06;;;5.70;57.00
75747;BME280;64363;52.198;21.020;2023-03-19T02:35:31;100545.28;;;5.70;56.95
75747;BME280;64363;52.198;21.020;2023-03-19T02:37:59;100555.88;;;5.69;57.43
75747;BME280;64363;52.198;21.020;2023-03-19T02:40:29;100558.56;;;5.65;57.27
75747;BME280;64363;52.198;21.020;2023-03-19T02:42:56;100562.91;;;5.73;56.43
75747;BME280;64363;52.198;21.020;2023-03-19T02:45:27;100562.94;;;5.70;56.86
75747;BME280;64363;52.198;21.020;2023-03-19T02:47:54;100561.22;;;5.64;56.26
75747;BME280;64363;52.198;21.020;2023-03-19T02:50:20;100567.34;;;5.66;56.38
75747;BME280;64363;52.198;21.020;2023-03-19T02:52:45;100568.34;;;5.57;56.80
75747;BME280;64363;52.198;21.020;2023-03-19T02:55:11;100564.81;;;5.55;57.95
75747;BME280;64363;52.198;21.020;2023-03-19T02:57:37;100578.06;;;5.52;57.39
75747;BME280;64363;52.198;21.020;2023-03-19T03:00:04;100572.81;;;5.48;56.21
75747;BME280;64363;52.198;21.020;2023-03-19T03:02:30;100577.22;;;5.47;56.79
75747;BME280;64363;52.198;21.020;2023-03-19T03:04:56;100576.34;;;5.47;57.65
75747;BME280;64363;52.198;21.020;2023-03-19T03:07:21;100571.06;;;5.45;57.79
75747;BME280;64363;52.198;21.020;2023-03-19T03:09:47;100572.84;;;5.42;57.89
75747;BME280;64363;52.198;21.020;2023-03-19T03:12:13;100571.09;;;5.39;57.60
75747;BME280;64363;52.198;21.020;2023-03-19T03:14:39;100579.03;;;5.39;56.75
75747;BME280;64363;52.198;21.020;2023-03-19T03:17:05;100573.75;;;5.39;58.21
75747;BME280;64363;52.198;21.020;2023-03-19T03:19:34;100573.72;;;5.42;57.02
75747;BME280;64363;52.198;21.020;2023-03-19T03:21:59;100571.94;;;5.46;56.94
75747;BME280;64363;52.198;21.020;2023-03-19T03:24:26;100568.53;;;5.33;57.24
75747;BME280;64363;52.198;21.020;2023-03-19T03:26:52;100561.47;;;5.32;57.58
75747;BME280;64363;52.198;21.020;2023-03-19T03:29:17;100569.44;;;5.28;57.74
75747;BME280;64363;52.198;21.020;2023-03-19T03:31:43;100568.56;;;5.27;57.89
75747;BME280;64363;52.198;21.020;2023-03-19T03:34:09;100560.59;;;5.30;57.46
75747;BME280;64363;52.198;21.020;2023-03-19T03:36:35;100561.47;;;5.32;57.21
75747;BME280;64363;52.198;21.020;2023-03-19T03:39:02;100557.94;;;5.30;57.65
75747;BME280;64363;52.198;21.020;2023-03-19T03:41:28;100559.78;;;5.22;57.16
75747;BME280;64363;52.198;21.020;2023-03-19T03:43:54;100570.38;;;5.19;57.69
75747;BME280;64363;52.198;21.020;2023-03-19T03:46:20;100560.69;;;5.19;58.87
75747;BME280;64363;52.198;21.020;2023-03-19T03:48:45;100563.31;;;5.18;58.81
75747;BME280;64363;52.198;21.020;2023-03-19T03:51:14;100559.81;;;5.21;58.36
75747;BME280;64363;52.198;21.020;2023-03-19T03:53:39;100553.66;;;5.17;58.95
75747;BME280;64363;52.198;21.020;2023-03-19T03:56:05;100560.75;;;5.12;59.25
75747;BME280;64363;52.198;21.020;2023-03-19T03:58:31;100559.00;;;5.09;58.99
75747;BME280;64363;52.198;21.020;2023-03-19T04:00:57;100564.31;;;5.03;58.62
75747;BME280;64363;52.198;21.020;2023-03-19T04:03:23;100555.53;;;5.00;59.53
75747;BME280;64363;52.198;21.020;2023-03-19T04:05:50;100553.78;;;4.97;59.27
75747;BME280;64363;52.198;21.020;2023-03-19T04:08:16;100561.75;;;4.91;59.58
75747;BME280;64363;52.198;21.020;2023-03-19T04:10:42;100554.75;;;4.84;59.50
75747;BME280;64363;52.198;21.020;2023-03-19T04:13:09;100550.34;;;4.82;59.71
75747;BME280;64363;52.198;21.020;2023-03-19T04:15:35;100558.25;;;4.82;59.28
75747;BME280;64363;52.198;21.020;2023-03-19T04:18:01;100550.38;;;4.76;59.36
75747;BME280;64363;52.198;21.020;2023-03-19T12:26:59;100446.44;;;15.90;32.75
